createdAt,value
2023-04-13T00:02:05.519Z,5.40
2023-04-13T00:04:32.518Z,5.33
2023-04-13T00:07:00.622Z,5.26
2023-04-13T00:09:27.370Z,5.19
2023-04-13T00:11:54.084Z,5.13
2023-04-13T00:14:20.816Z,5.08
2023-04-13T00:16:47.594Z,4.98
2023-04-13T00:19:14.420Z,4.89
2023-04-13T00:21:41.144Z,4.84
2023-04-13T00:24:09.298Z,4.81
2023-04-13T00:26:36.053Z,4.79
2023-04-13T00:29:02.793Z,4.80
2023-04-13T00:31:29.615Z,4.84
2023-04-13T00:33:56.628Z,4.83
2023-04-13T00:36:23.544Z,4.75
2023-04-13T00:38:50.321Z,4.82
2023-04-13T00:41:18.488Z,4.84
2023-04-13T00:43:45.278Z,4.83
2023-04-13T00:46:12.139Z,4.74
2023-04-13T00:48:38.905Z,4.82
2023-04-13T00:51:07.396Z,4.74
2023-04-13T00:53:34.191Z,4.71
2023-04-13T00:56:01.919Z,4.82
2023-04-13T00:58:30.240Z,4.83
2023-04-13T01:00:56.981Z,4.76
2023-04-13T01:03:23.736Z,4.86
2023-04-13T01:06:02.019Z,4.81
2023-04-13T01:08:35.008Z,4.76
2023-04-13T01:11:05.299Z,4.74
2023-04-13T01:13:40.504Z,4.71
2023-04-13T01:16:16.268Z,4.64
2023-04-13T01:18:46.913Z,4.65
2023-04-13T01:21:17.161Z,4.61
2023-04-13T01:23:51.216Z,4.58
2023-04-13T01:26:18.462Z,4.57
2023-04-13T01:28:47.972Z,4.51
2023-04-13T01:31:16.146Z,4.49
2023-04-13T01:33:43.558Z,4.44
2023-04-13T01:36:11.486Z,4.43
2023-04-13T01:38:39.414Z,4.42
2023-04-13T01:41:06.891Z,4.39
2023-04-13T01:43:34.272Z,4.50
2023-04-13T01:46:08.070Z,4.49
2023-04-13T01:48:39.066Z,4.46
2023-04-13T01:51:11.166Z,4.38
2023-04-13T01:53:42.497Z,4.49
2023-04-13T01:56:09.597Z,4.49
2023-04-13T01:58:37.749Z,4.41
2023-04-13T02:01:07.387Z,4.53
2023-04-13T02:03:34.628Z,4.46
2023-04-13T02:06:01.710Z,4.48
2023-04-13T02:08:28.663Z,4.45
2023-04-13T02:10:55.404Z,4.38
2023-04-13T02:13:22.172Z,4.32
2023-04-13T02:15:49.034Z,4.29
2023-04-13T02:18:17.110Z,4.31
2023-04-13T02:20:43.911Z,4.37
2023-04-13T02:23:11.773Z,4.44
2023-04-13T02:25:38.492Z,4.44
2023-04-13T02:28:05.466Z,4.40
2023-04-13T02:30:32.285Z,4.45
2023-04-13T02:32:59.068Z,4.47
2023-04-13T02:35:27.198Z,4.46
2023-04-13T02:37:53.939Z,4.38
2023-04-13T02:40:21.036Z,4.40
2023-04-13T02:42:47.771Z,4.26
2023-04-13T02:45:14.494Z,4.24
2023-04-13T02:47:41.352Z,4.25
2023-04-13T02:50:09.187Z,4.17
2023-04-13T02:52:37.320Z,4.08
2023-04-13T02:55:04.706Z,4.06
2023-04-13T02:57:31.593Z,4.01
2023-04-13T02:59:58.328Z,3.99
2023-04-13T03:02:25.318Z,4.00
2023-04-13T03:04:52.222Z,3.99
2023-04-13T03:07:19.020Z,4.01
2023-04-13T03:09:47.162Z,4.00
2023-04-13T03:12:13.911Z,3.99
2023-04-13T03:14:40.717Z,4.01
2023-04-13T03:17:07.508Z,3.93
2023-04-13T03:19:34.903Z,4.03
2023-04-13T03:22:01.749Z,4.06
2023-04-13T03:24:28.527Z,4.06
2023-04-13T03:26:57.652Z,4.15
2023-04-13T03:29:24.553Z,4.03
2023-04-13T03:31:51.552Z,3.91
2023-04-13T03:34:18.857Z,3.84
2023-04-13T03:36:45.644Z,3.83
2023-04-13T03:39:12.666Z,3.83
2023-04-13T03:41:39.401Z,3.79
2023-04-13T03:44:07.865Z,3.65
2023-04-13T03:46:35.111Z,3.62
2023-04-13T03:49:01.938Z,3.67
2023-04-13T03:51:28.670Z,3.55
2023-04-13T03:53:55.520Z,3.55
2023-04-13T03:56:22.348Z,3.57
2023-04-13T03:58:49.204Z,3.58
2023-04-13T04:01:17.322Z,3.60
2023-04-13T04:03:44.197Z,3.54
2023-04-13T04:06:11.111Z,3.54
2023-04-13T04:08:37.899Z,3.51
2023-04-13T04:11:05.292Z,3.51
2023-04-13T04:13:32.020Z,3.54
2023-04-13T04:15:58.779Z,3.54
2023-04-13T04:18:26.959Z,3.56
2023-04-13T04:20:53.674Z,3.59
2023-04-13T04:23:20.486Z,3.63
2023-04-13T04:25:47.218Z,3.61
2023-04-13T04:28:13.938Z,3.62
2023-04-13T04:30:40.677Z,3.64
2023-04-13T04:33:07.596Z,3.67
2023-04-13T04:35:35.827Z,3.69
2023-04-13T04:38:03.075Z,3.61
2023-04-13T04:40:29.995Z,3.55
2023-04-13T04:42:56.879Z,3.55
2023-04-13T04:45:24.071Z,3.43
2023-04-13T04:47:51.004Z,3.35
2023-04-13T04:50:17.838Z,3.47
2023-04-13T04:52:45.969Z,3.49
2023-04-13T04:55:12.812Z,3.52
2023-04-13T04:57:39.553Z,3.52
2023-04-13T05:00:07.733Z,3.55
2023-04-13T05:02:34.685Z,3.57
2023-04-13T05:05:01.646Z,3.56
2023-04-13T05:07:28.548Z,3.56
2023-04-13T05:09:56.890Z,3.56
2023-04-13T05:12:23.658Z,3.58
2023-04-13T05:14:50.439Z,3.60
2023-04-13T05:17:17.375Z,3.53
2023-04-13T05:19:44.304Z,3.50
2023-04-13T05:22:11.087Z,3.49
2023-04-13T05:24:37.918Z,3.53
2023-04-13T05:27:06.375Z,3.56
2023-04-13T05:29:33.097Z,3.52
2023-04-13T05:32:00.109Z,3.27
2023-04-13T05:34:27.050Z,3.16
2023-04-13T05:36:53.846Z,3.16
2023-04-13T05:39:20.577Z,3.02
2023-04-13T05:41:47.457Z,2.98
2023-04-13T05:44:15.659Z,2.99
2023-04-13T05:46:42.536Z,2.86
2023-04-13T05:49:09.320Z,2.79
2023-04-13T05:51:36.163Z,2.77
2023-04-13T05:54:02.988Z,2.74
2023-04-13T05:56:29.717Z,2.77
2023-04-13T05:58:56.734Z,2.81
2023-04-13T06:01:25.085Z,2.86
2023-04-13T06:03:52.044Z,2.90
2023-04-13T06:06:18.945Z,2.93
2023-04-13T06:08:45.676Z,2.79
2023-04-13T06:11:12.494Z,2.75
2023-04-13T06:13:39.239Z,2.71
2023-04-13T06:16:06.903Z,2.76
2023-04-13T06:18:35.136Z,2.72
2023-04-13T06:21:01.964Z,2.74
2023-04-13T06:23:28.786Z,2.79
2023-04-13T06:25:55.592Z,2.81
2023-04-13T06:28:22.419Z,2.78
2023-04-13T06:30:49.187Z,2.73
2023-04-13T06:33:17.898Z,2.65
2023-04-13T06:35:46.165Z,2.65
2023-04-13T06:38:12.892Z,2.61
2023-04-13T06:40:39.646Z,2.68
2023-04-13T06:43:13.471Z,2.79
2023-04-13T06:45:47.584Z,2.71
2023-04-13T06:48:14.332Z,2.61
2023-04-13T06:50:42.208Z,2.51
2023-04-13T06:53:10.506Z,2.57
2023-04-13T06:55:37.279Z,2.52
2023-04-13T06:58:04.049Z,2.37
2023-04-13T07:00:31.118Z,2.24
2023-04-13T07:02:58.220Z,2.29
2023-04-13T07:05:25.330Z,2.16
2023-04-13T07:07:52.215Z,2.23
2023-04-13T07:10:20.710Z,2.10
2023-04-13T07:12:47.422Z,2.07
2023-04-13T07:15:14.536Z,2.00
2023-04-13T07:17:41.523Z,1.91
2023-04-13T07:20:09.356Z,1.82
2023-04-13T07:22:36.100Z,1.77
2023-04-13T07:25:02.876Z,1.61
2023-04-13T07:27:31.082Z,1.48
2023-04-13T07:29:57.814Z,1.43
2023-04-13T07:32:30.258Z,1.31
2023-04-13T07:34:57.677Z,1.25
2023-04-13T07:37:24.552Z,1.27
2023-04-13T07:39:51.317Z,1.32
2023-04-13T07:42:18.117Z,1.27
2023-04-13T07:44:46.232Z,1.21
2023-04-13T07:47:13.074Z,1.36
2023-04-13T07:49:39.852Z,1.27
2023-04-13T07:52:06.598Z,1.23
2023-04-13T07:54:33.408Z,1.27
2023-04-13T07:57:00.240Z,1.24
2023-04-13T07:59:27.140Z,1.28
2023-04-13T08:01:55.263Z,1.36
2023-04-13T08:04:22.240Z,1.40
2023-04-13T08:06:49.355Z,1.39
2023-04-13T08:09:16.190Z,1.38
2023-04-13T08:11:43.386Z,1.44
2023-04-13T08:14:10.218Z,1.19
2023-04-13T08:16:37.095Z,1.23
2023-04-13T08:19:07.604Z,1.14
2023-04-13T08:21:34.614Z,1.16
2023-04-13T08:24:01.378Z,0.91
2023-04-13T08:26:28.171Z,0.81
2023-04-13T08:28:54.914Z,0.58
2023-04-13T08:31:21.745Z,0.58
2023-04-13T08:33:48.539Z,0.54
2023-04-13T08:36:16.753Z,0.52
2023-04-13T08:38:43.544Z,0.52
2023-04-13T08:41:10.494Z,0.47
2023-04-13T08:43:38.341Z,0.42
2023-04-13T08:46:05.834Z,0.49
2023-04-13T08:48:42.802Z,0.60
2023-04-13T08:51:21.879Z,0.73
2023-04-13T08:53:48.718Z,0.79
2023-04-13T08:56:16.076Z,0.79
2023-04-13T08:58:46.639Z,0.80
2023-04-13T09:01:14.892Z,0.83
2023-04-13T09:03:48.820Z,0.84
2023-04-13T09:06:23.442Z,0.83
2023-04-13T09:08:52.852Z,0.76
2023-04-13T09:11:19.772Z,0.80
2023-04-13T09:13:49.016Z,0.79
2023-04-13T09:16:17.182Z,0.88
2023-04-13T09:18:51.420Z,1.04
2023-04-13T09:21:20.159Z,1.08
2023-04-13T09:23:57.800Z,1.27
2023-04-13T09:26:40.991Z,1.21
2023-04-13T09:29:13.991Z,1.31
2023-04-13T09:31:45.509Z,1.40
2023-04-13T09:34:14.814Z,1.49
2023-04-13T09:36:53.995Z,1.49
2023-04-13T09:39:26.975Z,1.54
2023-04-13T09:41:56.856Z,1.71
2023-04-13T09:44:28.706Z,1.87
2023-04-13T09:46:59.685Z,2.02
2023-04-13T09:49:36.565Z,2.15
2023-04-13T09:52:03.863Z,2.27
2023-04-13T09:54:35.062Z,2.36
2023-04-13T09:57:01.881Z,2.45
2023-04-13T09:59:30.021Z,2.51
2023-04-13T10:01:57.022Z,2.55
2023-04-13T10:04:24.530Z,2.51
2023-04-13T10:06:51.554Z,2.42
2023-04-13T10:09:18.285Z,2.42
2023-04-13T10:11:49.539Z,2.31
2023-04-13T10:14:19.738Z,2.23
2023-04-13T10:17:11.810Z,2.17
2023-04-13T10:19:41.808Z,2.27
2023-04-13T10:22:09.680Z,2.28
2023-04-13T10:24:38.717Z,2.22
2023-04-13T10:27:14.492Z,2.14
2023-04-13T10:29:41.402Z,2.10
2023-04-13T10:32:08.242Z,2.10
2023-04-13T10:34:35.984Z,2.08
2023-04-13T10:37:02.888Z,2.14
2023-04-13T10:39:31.128Z,2.26
2023-04-13T10:42:08.334Z,2.36
2023-04-13T10:44:43.746Z,2.45
2023-04-13T10:47:11.018Z,2.50
2023-04-13T10:49:38.183Z,2.33
2023-04-13T10:52:05.221Z,2.43
2023-04-13T10:54:34.247Z,2.50
2023-04-13T10:57:03.460Z,2.45
2023-04-13T10:59:56.122Z,2.51
2023-04-13T11:02:25.398Z,2.44
2023-04-13T11:04:53.037Z,2.39
2023-04-13T11:07:22.028Z,2.27
2023-04-13T11:09:49.765Z,2.19
2023-04-13T11:12:17.085Z,2.28
2023-04-13T11:14:46.325Z,2.30
2023-04-13T11:17:14.851Z,2.29
2023-04-13T11:19:49.971Z,2.10
2023-04-13T11:22:17.830Z,2.00
2023-04-13T11:24:45.720Z,2.05
2023-04-13T11:27:17.106Z,2.04
2023-04-13T11:29:44.032Z,2.10
2023-04-13T11:32:17.877Z,2.08
2023-04-13T11:34:44.822Z,2.08
2023-04-13T11:37:11.840Z,2.09
2023-04-13T11:39:38.657Z,2.05
2023-04-13T11:42:06.171Z,1.84
2023-04-13T11:44:34.595Z,1.79
2023-04-13T11:47:02.722Z,1.71
2023-04-13T11:49:31.613Z,1.45
2023-04-13T11:51:59.388Z,1.48
2023-04-13T11:54:26.667Z,1.43
2023-04-13T11:56:54.546Z,1.41
2023-04-13T11:59:23.462Z,1.49
2023-04-13T12:01:58.028Z,1.51
2023-04-13T12:04:36.694Z,1.52
2023-04-13T12:07:10.640Z,1.53
2023-04-13T12:09:55.148Z,1.43
2023-04-13T12:15:05.972Z,1.20
2023-04-13T12:17:48.431Z,1.25
2023-04-13T12:20:19.956Z,1.33
2023-04-13T12:25:20.337Z,1.43
2023-04-13T12:27:49.392Z,1.45
2023-04-13T12:30:17.165Z,1.33
2023-04-13T12:32:45.183Z,1.05
2023-04-13T12:35:11.913Z,0.94
2023-04-13T12:37:41.474Z,0.86
2023-04-13T12:40:09.365Z,0.92
2023-04-13T12:42:37.219Z,0.81
2023-04-13T12:45:05.096Z,0.83
2023-04-13T12:47:31.985Z,0.68
2023-04-13T12:49:58.748Z,0.70
2023-04-13T12:52:25.629Z,0.58
2023-04-13T12:54:53.834Z,0.58
2023-04-13T12:57:21.133Z,0.33
2023-04-13T12:59:47.962Z,0.08
2023-04-13T13:02:16.279Z,-0.14
2023-04-13T13:04:43.232Z,-0.22
2023-04-13T13:07:10.238Z,-0.09
2023-04-13T13:09:37.083Z,0.05
2023-04-13T13:12:05.674Z,0.09
2023-04-13T13:14:32.523Z,0.17
2023-04-13T13:16:59.453Z,0.14
2023-04-13T13:19:26.332Z,0.24
2023-04-13T13:21:53.241Z,0.34
2023-04-13T13:24:20.099Z,0.50
2023-04-13T13:29:21.301Z,0.71
2023-04-13T13:31:48.346Z,0.73
2023-04-13T13:34:15.217Z,0.77
2023-04-13T13:36:41.992Z,0.86
2023-04-13T13:39:08.789Z,0.94
2023-04-13T13:41:35.594Z,1.02
2023-04-13T13:44:02.306Z,1.05
2023-04-13T13:46:30.574Z,1.07
2023-04-13T13:48:57.463Z,1.05
2023-04-13T13:51:24.216Z,0.99
2023-04-13T13:53:51.024Z,0.91
2023-04-13T13:56:18.028Z,0.76
2023-04-13T13:58:44.928Z,0.73
2023-04-13T14:01:11.843Z,0.67
2023-04-13T14:03:40.141Z,0.60
2023-04-13T14:06:07.882Z,0.58
2023-04-13T14:08:34.779Z,0.42
2023-04-13T14:11:01.823Z,0.35
2023-04-13T14:13:29.497Z,0.34
2023-04-13T14:15:56.259Z,0.29
2023-04-13T14:18:23.407Z,0.29
2023-04-13T14:20:51.752Z,0.41
2023-04-13T14:23:18.823Z,0.31
2023-04-13T14:25:45.583Z,0.21
2023-04-13T14:28:12.411Z,0.16
2023-04-13T14:30:39.412Z,0.12
2023-04-13T14:33:06.568Z,0.20
2023-04-13T14:35:33.733Z,0.24
2023-04-13T14:38:01.970Z,0.32
2023-04-13T14:40:28.808Z,0.30
2023-04-13T14:42:55.540Z,0.35
2023-04-13T14:45:22.396Z,0.35
2023-04-13T14:47:49.300Z,0.35
2023-04-13T14:50:16.616Z,0.32
2023-04-13T14:52:43.593Z,0.24
2023-04-13T14:55:12.429Z,0.16
2023-04-13T14:57:39.828Z,0.15
2023-04-13T15:00:07.778Z,0.08
2023-04-13T15:02:34.713Z,0.13
2023-04-13T15:05:01.655Z,0.17
2023-04-13T15:07:28.478Z,0.19
2023-04-13T15:09:55.205Z,0.19
2023-04-13T15:12:23.319Z,0.17
2023-04-13T15:14:50.121Z,0.15
2023-04-13T15:17:16.901Z,0.16
2023-04-13T15:19:43.734Z,0.19
2023-04-13T15:22:10.895Z,0.19
2023-04-13T15:24:37.767Z,0.14
2023-04-13T15:27:04.587Z,0.07
2023-04-13T15:29:32.739Z,0.06
2023-04-13T15:31:59.490Z,0.02
2023-04-13T15:34:26.330Z,-0.03
2023-04-13T15:36:53.357Z,-0.08
2023-04-13T15:39:20.183Z,-0.09
2023-04-13T15:41:46.963Z,-0.04
2023-04-13T15:44:13.757Z,-0.09
2023-04-13T15:46:41.897Z,-0.11
2023-04-13T15:49:08.769Z,-0.16
2023-04-13T15:51:35.595Z,-0.22
2023-04-13T15:54:02.369Z,-0.26
2023-04-13T15:56:29.130Z,-0.28
2023-04-13T15:58:55.837Z,-0.22
2023-04-13T16:01:22.678Z,-0.16
2023-04-13T16:03:51.014Z,-0.36
2023-04-13T16:06:18.002Z,-0.30
2023-04-13T16:08:44.725Z,-0.40
2023-04-13T16:11:11.446Z,-0.32
2023-04-13T16:13:48.031Z,-0.26
2023-04-13T16:16:15.983Z,-0.36
2023-04-13T16:18:42.818Z,-0.41
2023-04-13T16:21:11.127Z,-0.32
2023-04-13T16:23:38.006Z,-0.29
2023-04-13T16:26:05.047Z,-0.27
2023-04-13T16:28:31.957Z,-0.25
2023-04-13T16:30:59.231Z,-0.17
2023-04-13T16:33:26.090Z,-0.21
2023-04-13T16:35:52.887Z,-0.17
2023-04-13T16:38:21.478Z,-0.18
2023-04-13T16:40:48.272Z,-0.20
2023-04-13T16:43:15.193Z,-0.15
2023-04-13T16:45:41.901Z,-0.13
2023-04-13T16:48:08.653Z,-0.07
2023-04-13T16:50:35.908Z,-0.13
2023-04-13T16:53:02.647Z,-0.10
2023-04-13T16:55:30.839Z,-0.19
2023-04-13T16:57:57.909Z,-0.23
2023-04-13T17:00:24.891Z,-0.29
2023-04-13T17:02:51.748Z,-0.36
2023-04-13T17:05:18.741Z,-0.50
2023-04-13T17:07:45.612Z,-0.52
2023-04-13T17:10:13.250Z,-0.51
2023-04-13T17:12:41.781Z,-0.53
2023-04-13T17:15:09.663Z,-0.45
2023-04-13T17:17:36.683Z,-0.54
2023-04-13T17:20:03.988Z,-0.52
2023-04-13T17:22:30.882Z,-0.68
2023-04-13T17:24:57.665Z,-0.68
2023-04-13T17:27:24.508Z,-0.64
2023-04-13T17:29:52.731Z,-0.68
2023-04-13T17:32:19.685Z,-0.68
2023-04-13T17:34:46.765Z,-0.70
2023-04-13T17:37:13.637Z,-0.76
2023-04-13T17:39:40.400Z,-0.78
2023-04-13T17:42:07.273Z,-0.76
2023-04-13T17:44:34.037Z,-0.69
2023-04-13T17:47:02.162Z,-0.72
2023-04-13T17:49:29.112Z,-0.66
2023-04-13T17:51:55.822Z,-0.58
2023-04-13T17:54:22.652Z,-0.59
2023-04-13T17:56:49.463Z,-0.53
2023-04-13T17:59:16.163Z,-0.60
2023-04-13T18:01:43.058Z,-0.54
2023-04-13T18:04:12.704Z,-0.60
2023-04-13T18:06:40.487Z,-0.61
2023-04-13T18:09:07.508Z,-0.57
2023-04-13T18:11:34.553Z,-0.57
2023-04-13T18:14:02.475Z,-0.65
2023-04-13T18:16:29.654Z,-0.67
2023-04-13T18:18:56.398Z,-0.64
2023-04-13T18:21:24.801Z,-0.54
2023-04-13T18:23:51.605Z,-0.55
2023-04-13T18:26:18.520Z,-0.55
2023-04-13T18:28:45.331Z,-0.60
2023-04-13T18:31:12.111Z,-0.51
2023-04-13T18:33:38.907Z,-0.53
2023-04-13T18:36:06.113Z,-0.55
2023-04-13T18:38:34.535Z,-0.57
2023-04-13T18:41:01.261Z,-0.57
2023-04-13T18:43:27.970Z,-0.52
2023-04-13T18:45:54.745Z,-0.50
2023-04-13T18:48:21.479Z,-0.54
2023-04-13T18:50:48.208Z,-0.54
2023-04-13T18:53:14.999Z,-0.54
2023-04-13T18:55:47.911Z,-0.46
2023-04-13T18:58:14.738Z,-0.49
2023-04-13T19:00:41.544Z,-0.44
2023-04-13T19:03:08.487Z,-0.41
2023-04-13T19:05:35.480Z,-0.38
2023-04-13T19:08:03.776Z,-0.41
2023-04-13T19:10:30.511Z,-0.40
2023-04-13T19:12:58.744Z,-0.47
2023-04-13T19:15:25.812Z,-0.55
2023-04-13T19:17:52.709Z,-0.55
2023-04-13T19:20:21.869Z,-0.58
2023-04-13T19:22:48.716Z,-0.64
2023-04-13T19:25:15.479Z,-0.67
2023-04-13T19:27:42.734Z,-0.67
2023-04-13T19:30:11.941Z,-0.62
2023-04-13T19:32:39.710Z,-0.60
2023-04-13T19:35:07.125Z,-0.58
2023-04-13T19:37:34.302Z,-0.66
2023-04-13T19:40:01.131Z,-0.68
2023-04-13T19:42:27.963Z,-0.68
2023-04-13T19:44:55.141Z,-0.77
2023-04-13T19:47:23.268Z,-0.77
2023-04-13T19:49:50.024Z,-0.73
2023-04-13T19:52:16.869Z,-0.65
2023-04-13T19:54:43.978Z,-0.62
2023-04-13T19:57:11.392Z,-0.64
2023-04-13T19:59:38.166Z,-0.62
2023-04-13T20:02:05.474Z,-0.66
2023-04-13T20:04:34.254Z,-0.67
2023-04-13T20:07:01.181Z,-0.65
2023-04-13T20:09:28.022Z,-0.64
2023-04-13T20:11:54.816Z,-0.65
2023-04-13T20:14:21.700Z,-0.58
2023-04-13T20:16:48.625Z,-0.58
2023-04-13T20:19:15.412Z,-0.63
2023-04-13T20:21:43.567Z,-0.61
2023-04-13T20:24:10.404Z,-0.58
2023-04-13T20:26:37.163Z,-0.55
2023-04-13T20:29:04.706Z,-0.53
2023-04-13T20:31:32.917Z,-0.50
2023-04-13T20:33:59.956Z,-0.46
2023-04-13T20:36:27.055Z,-0.47
2023-04-13T20:38:55.810Z,-0.45
2023-04-13T20:41:22.652Z,-0.43
2023-04-13T20:43:50.746Z,-0.42
2023-04-13T20:46:17.617Z,-0.39
2023-04-13T20:51:13.990Z,-0.41
2023-04-13T20:53:40.752Z,-0.41
2023-04-13T20:56:08.875Z,-0.47
2023-04-13T20:58:35.696Z,-0.45
2023-04-13T21:01:02.864Z,-0.48
2023-04-13T21:03:29.911Z,-0.52
2023-04-13T21:05:57.048Z,-0.54
2023-04-13T21:08:23.779Z,-0.52
2023-04-13T21:10:50.625Z,-0.52
2023-04-13T21:13:19.133Z,-0.52
2023-04-13T21:15:46.990Z,-0.49
2023-04-13T21:18:13.809Z,-0.46
2023-04-13T21:20:42.539Z,-0.45
2023-04-13T21:23:12.179Z,-0.53
2023-04-13T21:25:38.980Z,-0.53
2023-04-13T21:28:05.778Z,-0.48
2023-04-13T21:30:33.900Z,-0.47
2023-04-13T21:33:00.860Z,-0.45
2023-04-13T21:35:28.528Z,-0.41
2023-04-13T21:37:55.283Z,-0.37
2023-04-13T21:40:22.241Z,-0.45
2023-04-13T21:42:48.975Z,-0.45
2023-04-13T21:45:15.713Z,-0.48
2023-04-13T21:47:43.930Z,-0.48
2023-04-13T21:50:11.055Z,-0.48
2023-04-13T21:52:37.908Z,-0.52
2023-04-13T21:55:05.440Z,-0.56
2023-04-13T21:57:32.184Z,-0.62
2023-04-13T21:59:58.946Z,-0.66
2023-04-13T22:02:25.824Z,-0.61
2023-04-13T22:04:54.099Z,-0.62
2023-04-13T22:07:28.650Z,-0.58
2023-04-13T22:10:07.317Z,-0.61
2023-04-13T22:12:34.178Z,-0.63
2023-04-13T22:15:00.974Z,-0.57
2023-04-13T22:17:27.741Z,-0.53
2023-04-13T22:19:55.924Z,-0.55
2023-04-13T22:22:22.646Z,-0.48
2023-04-13T22:24:50.776Z,-0.52
2023-04-13T22:27:17.586Z,-0.51
2023-04-13T22:29:44.370Z,-0.48
2023-04-13T22:32:11.140Z,-0.46
2023-04-13T22:34:37.856Z,-0.47
2023-04-13T22:37:05.988Z,-0.45
2023-04-13T22:39:32.865Z,-0.46
2023-04-13T22:41:59.738Z,-0.44
2023-04-13T22:44:32.285Z,-0.46
2023-04-13T22:46:59.218Z,-0.41
2023-04-13T22:49:28.001Z,-0.41
2023-04-13T22:51:54.839Z,-0.37
2023-04-13T22:54:23.445Z,-0.41
2023-04-13T22:56:50.298Z,-0.37
2023-04-13T22:59:17.022Z,-0.36
2023-04-13T23:01:43.943Z,-0.37
2023-04-13T23:04:12.180Z,-0.41
2023-04-13T23:06:41.033Z,-0.37
2023-04-13T23:09:07.753Z,-0.38
2023-04-13T23:11:35.916Z,-0.41
2023-04-13T23:14:02.644Z,-0.48
2023-04-13T23:16:29.594Z,-0.50
2023-04-13T23:18:56.472Z,-0.52
2023-04-13T23:21:23.314Z,-0.60
2023-04-13T23:23:50.257Z,-0.54
2023-04-13T23:26:16.973Z,-0.56
2023-04-13T23:28:46.071Z,-0.55
2023-04-13T23:31:12.931Z,-0.61
2023-04-13T23:33:39.718Z,-0.64
2023-04-13T23:36:07.261Z,-0.63
2023-04-13T23:38:34.033Z,-0.59
2023-04-13T23:41:00.960Z,-0.56
2023-04-13T23:43:27.991Z,-0.58
2023-04-13T23:45:56.165Z,-0.61
2023-04-13T23:48:23.427Z,-0.64
2023-04-13T23:50:50.261Z,-0.66
2023-04-13T23:53:17.008Z,-0.59
2023-04-13T23:55:43.726Z,-0.62
2023-04-13T23:58:10.451Z,-0.43
